sensor_id;sensor_type;location;lat;lon;timestamp;pressure;altitude;pressure_sealevel;temperature
14666;BMP280;7420;53.574;10.040;2022-07-23T00:01:27;101848.03;;;16.07
14666;BMP280;7420;53.574;10.040;2022-07-23T00:03:54;101843.28;;;16.09
14666;BMP280;7420;53.574;10.040;2022-07-23T00:06:20;101845.97;;;16.09
14666;BMP280;7420;53.574;10.040;2022-07-23T00:08:45;101828.66;;;16.05
14666;BMP280;7420;53.574;10.040;2022-07-23T00:11:10;101827.25;;;16.02
14666;BMP280;7420;53.574;10.040;2022-07-23T00:13:36;101823.72;;;16.02
14666;BMP280;7420;53.574;10.040;2022-07-23T00:16:01;101824.75;;;16.01
14666;BMP280;7420;53.574;10.040;2022-07-23T00:18:27;101827.88;;;15.98
14666;BMP280;7420;53.574;10.040;2022-07-23T00:20:52;101821.91;;;15.96
14666;BMP280;7420;53.574;10.040;2022-07-23T00:23:18;101822.06;;;16.07
14666;BMP280;7420;53.574;10.040;2022-07-23T00:25:43;101824.16;;;15.99
14666;BMP280;7420;53.574;10.040;2022-07-23T00:28:10;101822.06;;;16.01
14666;BMP280;7420;53.574;10.040;2022-07-23T00:30:36;101821.47;;;15.99
14666;BMP280;7420;53.574;10.040;2022-07-23T00:33:04;101819.19;;;16.02
14666;BMP280;7420;53.574;10.040;2022-07-23T00:35:33;101822.00;;;16.13
14666;BMP280;7420;53.574;10.040;2022-07-23T00:37:59;101818.34;;;16.02
14666;BMP280;7420;53.574;10.040;2022-07-23T00:40:25;101827.06;;;15.97
14666;BMP280;7420;53.574;10.040;2022-07-23T00:42:51;101820.09;;;15.90
14666;BMP280;7420;53.574;10.040;2022-07-23T00:45:16;101805.88;;;15.89
14666;BMP280;7420;53.574;10.040;2022-07-23T00:47:41;101811.19;;;15.96
14666;BMP280;7420;53.574;10.040;2022-07-23T00:50:08;101810.53;;;16.00
14666;BMP280;7420;53.574;10.040;2022-07-23T00:52:34;101811.84;;;15.91
14666;BMP280;7420;53.574;10.040;2022-07-23T00:55:00;101812.09;;;15.83
14666;BMP280;7420;53.574;10.040;2022-07-23T00:57:26;101810.34;;;15.71
14666;BMP280;7420;53.574;10.040;2022-07-23T00:59:51;101813.97;;;15.83
14666;BMP280;7420;53.574;10.040;2022-07-23T01:02:16;101813.97;;;15.83
14666;BMP280;7420;53.574;10.040;2022-07-23T01:04:42;101820.97;;;15.84
14666;BMP280;7420;53.574;10.040;2022-07-23T01:07:08;101820.03;;;15.72
14666;BMP280;7420;53.574;10.040;2022-07-23T01:09:33;101815.38;;;15.85
14666;BMP280;7420;53.574;10.040;2022-07-23T01:11:59;101810.09;;;15.72
14666;BMP280;7420;53.574;10.040;2022-07-23T01:14:24;101805.03;;;15.58
14666;BMP280;7420;53.574;10.040;2022-07-23T01:16:50;101808.50;;;15.65
14666;BMP280;7420;53.574;10.040;2022-07-23T01:19:18;101805.63;;;15.66
14666;BMP280;7420;53.574;10.040;2022-07-23T01:21:48;101805.63;;;15.66
14666;BMP280;7420;53.574;10.040;2022-07-23T01:24:15;101796.97;;;15.64
14666;BMP280;7420;53.574;10.040;2022-07-23T01:26:43;101807.28;;;15.67
14666;BMP280;7420;53.574;10.040;2022-07-23T01:29:08;101801.75;;;15.56
14666;BMP280;7420;53.574;10.040;2022-07-23T01:31:34;101802.97;;;15.60
14666;BMP280;7420;53.574;10.040;2022-07-23T01:34:00;101800.91;;;15.62
14666;BMP280;7420;53.574;10.040;2022-07-23T01:36:25;101800.88;;;15.68
14666;BMP280;7420;53.574;10.040;2022-07-23T01:38:51;101805.34;;;15.74
14666;BMP280;7420;53.574;10.040;2022-07-23T01:41:16;101797.59;;;15.60
14666;BMP280;7420;53.574;10.040;2022-07-23T01:43:42;101798.22;;;15.62
14666;BMP280;7420;53.574;10.040;2022-07-23T01:46:08;101796.31;;;15.69
14666;BMP280;7420;53.574;10.040;2022-07-23T01:48:33;101795.34;;;15.63
14666;BMP280;7420;53.574;10.040;2022-07-23T01:50:58;101799.25;;;15.61
14666;BMP280;7420;53.574;10.040;2022-07-23T01:53:24;101794.91;;;15.66
14666;BMP280;7420;53.574;10.040;2022-07-23T01:55:49;101791.81;;;15.63
14666;BMP280;7420;53.574;10.040;2022-07-23T01:58:15;101780.31;;;15.56
14666;BMP280;7420;53.574;10.040;2022-07-23T02:00:40;101772.56;;;15.72
14666;BMP280;7420;53.574;10.040;2022-07-23T02:03:05;101763.38;;;15.62
14666;BMP280;7420;53.574;10.040;2022-07-23T02:05:31;101757.41;;;15.60
14666;BMP280;7420;53.574;10.040;2022-07-23T02:07:59;101760.09;;;15.60
14666;BMP280;7420;53.574;10.040;2022-07-23T02:10:26;101752.75;;;15.49
14666;BMP280;7420;53.574;10.040;2022-07-23T02:12:51;101750.22;;;15.54
14666;BMP280;7420;53.574;10.040;2022-07-23T02:15:17;101746.50;;;15.55
14666;BMP280;7420;53.574;10.040;2022-07-23T02:17:43;101751.44;;;15.58
14666;BMP280;7420;53.574;10.040;2022-07-23T02:20:09;101758.88;;;15.56
14666;BMP280;7420;53.574;10.040;2022-07-23T02:22:35;101754.34;;;15.56
14666;BMP280;7420;53.574;10.040;2022-07-23T02:25:02;101753.09;;;15.59
14666;BMP280;7420;53.574;10.040;2022-07-23T02:27:27;101757.66;;;15.52
14666;BMP280;7420;53.574;10.040;2022-07-23T02:29:53;101750.84;;;15.56
14666;BMP280;7420;53.574;10.040;2022-07-23T02:32:19;101759.53;;;15.51
14666;BMP280;7420;53.574;10.040;2022-07-23T02:34:46;101762.59;;;15.55
14666;BMP280;7420;53.574;10.040;2022-07-23T02:37:11;101763.03;;;15.52
14666;BMP280;7420;53.574;10.040;2022-07-23T02:39:37;101762.66;;;15.48
14666;BMP280;7420;53.574;10.040;2022-07-23T02:42:02;101758.50;;;15.52
14666;BMP280;7420;53.574;10.040;2022-07-23T02:44:27;101750.66;;;15.51
14666;BMP280;7420;53.574;10.040;2022-07-23T02:46:53;101747.41;;;15.42
14666;BMP280;7420;53.574;10.040;2022-07-23T02:49:19;101754.06;;;15.40
14666;BMP280;7420;53.574;10.040;2022-07-23T02:51:44;101744.19;;;15.34
14666;BMP280;7420;53.574;10.040;2022-07-23T02:54:09;101756.38;;;15.23
14666;BMP280;7420;53.574;10.040;2022-07-23T02:56:35;101761.50;;;15.25
14666;BMP280;7420;53.574;10.040;2022-07-23T02:59:00;101766.03;;;15.31
14666;BMP280;7420;53.574;10.040;2022-07-23T03:01:25;101752.44;;;15.26
14666;BMP280;7420;53.574;10.040;2022-07-23T03:03:51;101746.28;;;15.19
14666;BMP280;7420;53.574;10.040;2022-07-23T03:06:16;101755.59;;;15.16
14666;BMP280;7420;53.574;10.040;2022-07-23T03:08:42;101750.44;;;15.15
14666;BMP280;7420;53.574;10.040;2022-07-23T03:11:07;101732.28;;;15.23
14666;BMP280;7420;53.574;10.040;2022-07-23T03:13:36;101747.75;;;15.15
14666;BMP280;7420;53.574;10.040;2022-07-23T03:16:02;101749.19;;;15.11
14666;BMP280;7420;53.574;10.040;2022-07-23T03:18:28;101743.00;;;15.17
14666;BMP280;7420;53.574;10.040;2022-07-23T03:20:53;101739.69;;;15.21
14666;BMP280;7420;53.574;10.040;2022-07-23T03:23:19;101729.19;;;15.26
14666;BMP280;7420;53.574;10.040;2022-07-23T03:25:44;101732.09;;;15.18
14666;BMP280;7420;53.574;10.040;2022-07-23T03:28:12;101739.53;;;15.16
14666;BMP280;7420;53.574;10.040;2022-07-23T03:30:37;101738.06;;;15.20
14666;BMP280;7420;53.574;10.040;2022-07-23T03:33:02;101733.50;;;15.21
14666;BMP280;7420;53.574;10.040;2022-07-23T03:35:28;101727.94;;;15.22
14666;BMP280;7420;53.574;10.040;2022-07-23T03:37:53;101728.97;;;15.28
14666;BMP280;7420;53.574;10.040;2022-07-23T03:40:18;101739.28;;;15.18
14666;BMP280;7420;53.574;10.040;2022-07-23T03:42:43;101728.56;;;15.18
14666;BMP280;7420;53.574;10.040;2022-07-23T03:45:10;101725.91;;;15.18
14666;BMP280;7420;53.574;10.040;2022-07-23T03:47:36;101732.72;;;15.14
14666;BMP280;7420;53.574;10.040;2022-07-23T03:50:03;101738.69;;;15.16
14666;BMP280;7420;53.574;10.040;2022-07-23T03:52:28;101740.31;;;15.17
14666;BMP280;7420;53.574;10.040;2022-07-23T03:54:53;101731.06;;;15.19
14666;BMP280;7420;53.574;10.040;2022-07-23T03:57:19;101750.59;;;15.20
14666;BMP280;7420;53.574;10.040;2022-07-23T03:59:44;101744.22;;;15.21
14666;BMP280;7420;53.574;10.040;2022-07-23T04:02:09;101745.22;;;15.33
14666;BMP280;7420;53.574;10.040;2022-07-23T04:04:35;101756.16;;;15.25
14666;BMP280;7420;53.574;10.040;2022-07-23T04:07:00;101757.63;;;15.27
14666;BMP280;7420;53.574;10.040;2022-07-23T04:09:26;101761.13;;;15.28
14666;BMP280;7420;53.574;10.040;2022-07-23T04:11:51;101758.19;;;15.36
14666;BMP280;7420;53.574;10.040;2022-07-23T04:14:17;101752.44;;;15.26
14666;BMP280;7420;53.574;10.040;2022-07-23T04:16:42;101756.91;;;15.45
14666;BMP280;7420;53.574;10.040;2022-07-23T04:19:08;101764.16;;;15.31
14666;BMP280;7420;53.574;10.040;2022-07-23T04:21:33;101757.34;;;15.42
14666;BMP280;7420;53.574;10.040;2022-07-23T04:23:58;101758.97;;;15.43
14666;BMP280;7420;53.574;10.040;2022-07-23T04:26:24;101759.59;;;15.45
14666;BMP280;7420;53.574;10.040;2022-07-23T04:28:49;101759.84;;;15.37
14666;BMP280;7420;53.574;10.040;2022-07-23T04:31:14;101763.13;;;15.39
14666;BMP280;7420;53.574;10.040;2022-07-23T04:33:40;101763.91;;;15.46
14666;BMP280;7420;53.574;10.040;2022-07-23T04:36:05;101755.28;;;15.37
14666;BMP280;7420;53.574;10.040;2022-07-23T04:38:31;101759.00;;;15.36
14666;BMP280;7420;53.574;10.040;2022-07-23T04:40:57;101761.47;;;15.38
14666;BMP280;7420;53.574;10.040;2022-07-23T04:43:23;101761.47;;;15.38
14666;BMP280;7420;53.574;10.040;2022-07-23T04:45:48;101766.03;;;15.31
14666;BMP280;7420;53.574;10.040;2022-07-23T04:48:14;101776.75;;;15.31
14666;BMP280;7420;53.574;10.040;2022-07-23T04:50:39;101778.41;;;15.32
14666;BMP280;7420;53.574;10.040;2022-07-23T04:53:05;101770.41;;;15.19
14666;BMP280;7420;53.574;10.040;2022-07-23T04:55:30;101779.91;;;15.08
14666;BMP280;7420;53.574;10.040;2022-07-23T04:57:56;101777.41;;;15.26
14666;BMP280;7420;53.574;10.040;2022-07-23T05:00:21;101778.84;;;15.16
14666;BMP280;7420;53.574;10.040;2022-07-23T05:02:46;101783.41;;;15.15
14666;BMP280;7420;53.574;10.040;2022-07-23T05:05:12;101789.31;;;15.24
14666;BMP280;7420;53.574;10.040;2022-07-23T05:07:37;101787.97;;;15.08
14666;BMP280;7420;53.574;10.040;2022-07-23T05:10:02;101788.41;;;14.99
14666;BMP280;7420;53.574;10.040;2022-07-23T05:12:28;101785.31;;;15.02
14666;BMP280;7420;53.574;10.040;2022-07-23T05:14:53;101777.72;;;14.99
14666;BMP280;7420;53.574;10.040;2022-07-23T05:17:19;101779.13;;;15.01
14666;BMP280;7420;53.574;10.040;2022-07-23T05:19:44;101775.81;;;15.06
14666;BMP280;7420;53.574;10.040;2022-07-23T05:22:09;101775.56;;;15.14
14666;BMP280;7420;53.574;10.040;2022-07-23T05:24:35;101779.69;;;15.16
14666;BMP280;7420;53.574;10.040;2022-07-23T05:27:00;101781.53;;;15.16
14666;BMP280;7420;53.574;10.040;2022-07-23T05:29:25;101795.53;;;15.24
14666;BMP280;7420;53.574;10.040;2022-07-23T05:31:51;101795.94;;;15.28
14666;BMP280;7420;53.574;10.040;2022-07-23T05:34:16;101801.72;;;15.18
14666;BMP280;7420;53.574;10.040;2022-07-23T05:36:41;101793.03;;;15.23
14666;BMP280;7420;53.574;10.040;2022-07-23T05:39:07;101793.25;;;15.28
14666;BMP280;7420;53.574;10.040;2022-07-23T05:41:32;101790.34;;;15.36
14666;BMP280;7420;53.574;10.040;2022-07-23T05:43:57;101794.47;;;15.32
14666;BMP280;7420;53.574;10.040;2022-07-23T05:46:23;101793.81;;;15.36
14666;BMP280;7420;53.574;10.040;2022-07-23T05:48:48;101798.13;;;15.44
14666;BMP280;7420;53.574;10.040;2022-07-23T05:51:24;101789.13;;;15.32
14666;BMP280;7420;53.574;10.040;2022-07-23T05:53:50;101800.28;;;15.22
14666;BMP280;7420;53.574;10.040;2022-07-23T05:56:16;101788.69;;;15.35
14666;BMP280;7420;53.574;10.040;2022-07-23T05:58:42;101790.72;;;15.39
14666;BMP280;7420;53.574;10.040;2022-07-23T06:01:08;101791.94;;;15.43
14666;BMP280;7420;53.574;10.040;2022-07-23T06:03:33;101796.00;;;15.52
14666;BMP280;7420;53.574;10.040;2022-07-23T06:05:59;101791.56;;;15.33
14666;BMP280;7420;53.574;10.040;2022-07-23T06:08:24;101788.59;;;15.54
14666;BMP280;7420;53.574;10.040;2022-07-23T06:10:49;101787.69;;;15.67
14666;BMP280;7420;53.574;10.040;2022-07-23T06:13:17;101795.47;;;15.75
14666;BMP280;7420;53.574;10.040;2022-07-23T06:15:42;101791.56;;;15.71
14666;BMP280;7420;53.574;10.040;2022-07-23T06:18:07;101787.41;;;15.75
14666;BMP280;7420;53.574;10.040;2022-07-23T06:20:33;101789.25;;;15.74
14666;BMP280;7420;53.574;10.040;2022-07-23T06:22:58;101786.06;;;15.90
14666;BMP280;7420;53.574;10.040;2022-07-23T06:25:24;101788.41;;;15.80
14666;BMP280;7420;53.574;10.040;2022-07-23T06:27:49;101788.50;;;15.98
14666;BMP280;7420;53.574;10.040;2022-07-23T06:30:15;101792.16;;;16.04
14666;BMP280;7420;53.574;10.040;2022-07-23T06:32:44;101797.75;;;16.02
14666;BMP280;7420;53.574;10.040;2022-07-23T06:35:11;101793.25;;;15.96
14666;BMP280;7420;53.574;10.040;2022-07-23T06:37:36;101796.03;;;16.08
14666;BMP280;7420;53.574;10.040;2022-07-23T06:40:02;101792.63;;;15.94
14666;BMP280;7420;53.574;10.040;2022-07-23T06:42:28;101794.47;;;16.00
14666;BMP280;7420;53.574;10.040;2022-07-23T06:44:53;101794.72;;;15.92
14666;BMP280;7420;53.574;10.040;2022-07-23T06:47:19;101798.19;;;15.93
14666;BMP280;7420;53.574;10.040;2022-07-23T06:49:44;101804.78;;;15.97
14666;BMP280;7420;53.574;10.040;2022-07-23T06:52:09;101794.41;;;16.07
14666;BMP280;7420;53.574;10.040;2022-07-23T06:54:35;101807.13;;;16.11
14666;BMP280;7420;53.574;10.040;2022-07-23T06:57:00;101804.88;;;16.08
14666;BMP280;7420;53.574;10.040;2022-07-23T06:59:26;101813.84;;;16.02
14666;BMP280;7420;53.574;10.040;2022-07-23T07:01:51;101811.19;;;15.96
14666;BMP280;7420;53.574;10.040;2022-07-23T07:04:17;101833.06;;;15.93
14666;BMP280;7420;53.574;10.040;2022-07-23T07:06:42;101821.34;;;15.87
14666;BMP280;7420;53.574;10.040;2022-07-23T07:09:07;101822.19;;;15.88
14666;BMP280;7420;53.574;10.040;2022-07-23T07:11:33;101813.44;;;15.99
14666;BMP280;7420;53.574;10.040;2022-07-23T07:13:58;101816.38;;;15.91
14666;BMP280;7420;53.574;10.040;2022-07-23T07:16:23;101826.72;;;15.87
14666;BMP280;7420;53.574;10.040;2022-07-23T07:18:49;101827.63;;;16.06
14666;BMP280;7420;53.574;10.040;2022-07-23T07:21:14;101825.97;;;16.29
14666;BMP280;7420;53.574;10.040;2022-07-23T07:23:40;101828.16;;;16.14
14666;BMP280;7420;53.574;10.040;2022-07-23T07:26:05;101854.56;;;15.86
14666;BMP280;7420;53.574;10.040;2022-07-23T07:28:30;101831.53;;;15.79
14666;BMP280;7420;53.574;10.040;2022-07-23T07:30:56;101846.44;;;15.68
14666;BMP280;7420;53.574;10.040;2022-07-23T07:33:21;101851.53;;;15.32
14666;BMP280;7420;53.574;10.040;2022-07-23T07:35:47;101845.19;;;15.14
14666;BMP280;7420;53.574;10.040;2022-07-23T07:38:12;101855.09;;;15.13
14666;BMP280;7420;53.574;10.040;2022-07-23T07:40:37;101846.69;;;15.54
14666;BMP280;7420;53.574;10.040;2022-07-23T07:43:03;101847.13;;;15.51
14666;BMP280;7420;53.574;10.040;2022-07-23T07:45:29;101838.41;;;15.62
14666;BMP280;7420;53.574;10.040;2022-07-23T07:47:54;101839.56;;;16.10
14666;BMP280;7420;53.574;10.040;2022-07-23T07:50:20;101834.91;;;16.23
14666;BMP280;7420;53.574;10.040;2022-07-23T07:52:46;101835.88;;;16.28
14666;BMP280;7420;53.574;10.040;2022-07-23T07:55:12;101828.00;;;16.58
14666;BMP280;7420;53.574;10.040;2022-07-23T07:57:37;101835.50;;;16.25
14666;BMP280;7420;53.574;10.040;2022-07-23T08:00:07;101834.38;;;16.08
14666;BMP280;7420;53.574;10.040;2022-07-23T08:02:44;101844.91;;;16.40
14666;BMP280;7420;53.574;10.040;2022-07-23T08:05:10;101833.78;;;16.37
14666;BMP280;7420;53.574;10.040;2022-07-23T08:07:36;101835.56;;;16.67
14666;BMP280;7420;53.574;10.040;2022-07-23T08:10:02;101828.34;;;16.19
14666;BMP280;7420;53.574;10.040;2022-07-23T08:12:28;101835.03;;;16.34
14666;BMP280;7420;53.574;10.040;2022-07-23T08:14:53;101835.66;;;16.36
14666;BMP280;7420;53.574;10.040;2022-07-23T08:17:18;101828.25;;;16.56
14666;BMP280;7420;53.574;10.040;2022-07-23T08:19:44;101827.47;;;16.49
14666;BMP280;7420;53.574;10.040;2022-07-23T08:22:09;101830.97;;;16.25
14666;BMP280;7420;53.574;10.040;2022-07-23T08:24:34;101869.06;;;15.79
14666;BMP280;7420;53.574;10.040;2022-07-23T08:27:00;101864.09;;;15.38
14666;BMP280;7420;53.574;10.040;2022-07-23T08:29:25;101856.00;;;15.51
14666;BMP280;7420;53.574;10.040;2022-07-23T08:31:50;101851.28;;;15.47
14666;BMP280;7420;53.574;10.040;2022-07-23T08:34:16;101852.16;;;15.41
14666;BMP280;7420;53.574;10.040;2022-07-23T08:36:41;101863.63;;;15.54
14666;BMP280;7420;53.574;10.040;2022-07-23T08:39:06;101856.28;;;15.74
14666;BMP280;7420;53.574;10.040;2022-07-23T08:41:32;101856.50;;;15.73
14666;BMP280;7420;53.574;10.040;2022-07-23T08:43:59;101859.22;;;15.66
14666;BMP280;7420;53.574;10.040;2022-07-23T08:46:26;101854.25;;;15.70
14666;BMP280;7420;53.574;10.040;2022-07-23T08:48:52;101848.03;;;15.76
14666;BMP280;7420;53.574;10.040;2022-07-23T08:51:20;101841.63;;;16.08
14666;BMP280;7420;53.574;10.040;2022-07-23T08:53:46;101834.63;;;16.31
14666;BMP280;7420;53.574;10.040;2022-07-23T08:56:11;101831.72;;;16.39
14666;BMP280;7420;53.574;10.040;2022-07-23T08:58:37;101831.38;;;16.53
14666;BMP280;7420;53.574;10.040;2022-07-23T09:01:02;101833.63;;;16.56
14666;BMP280;7420;53.574;10.040;2022-07-23T09:03:31;101845.84;;;16.70
14666;BMP280;7420;53.574;10.040;2022-07-23T09:05:58;101840.88;;;16.74
14666;BMP280;7420;53.574;10.040;2022-07-23T09:08:25;101832.69;;;17.05
14666;BMP280;7420;53.574;10.040;2022-07-23T09:10:59;101832.44;;;17.24
14666;BMP280;7420;53.574;10.040;2022-07-23T09:13:33;101823.03;;;17.15
14666;BMP280;7420;53.574;10.040;2022-07-23T09:16:04;101834.78;;;17.21
14666;BMP280;7420;53.574;10.040;2022-07-23T09:18:31;101834.41;;;17.35
14666;BMP280;7420;53.574;10.040;2022-07-23T09:21:11;101839.56;;;17.66
14666;BMP280;7420;53.574;10.040;2022-07-23T09:26:23;101829.47;;;17.91
14666;BMP280;7420;53.574;10.040;2022-07-23T09:29:07;101828.59;;;17.67
14666;BMP280;7420;53.574;10.040;2022-07-23T09:31:44;101825.00;;;17.85
14666;BMP280;7420;53.574;10.040;2022-07-23T09:34:12;101837.59;;;17.61
14666;BMP280;7420;53.574;10.040;2022-07-23T09:36:38;101837.31;;;17.81
14666;BMP280;7420;53.574;10.040;2022-07-23T09:39:05;101841.69;;;17.64
14666;BMP280;7420;53.574;10.040;2022-07-23T09:41:35;101846.19;;;17.81
14666;BMP280;7420;53.574;10.040;2022-07-23T09:44:09;101846.31;;;17.86
14666;BMP280;7420;53.574;10.040;2022-07-23T09:46:35;101834.19;;;17.66
14666;BMP280;7420;53.574;10.040;2022-07-23T09:49:10;101844.72;;;17.67
14666;BMP280;7420;53.574;10.040;2022-07-23T09:51:47;101836.59;;;17.56
14666;BMP280;7420;53.574;10.040;2022-07-23T09:54:25;101841.25;;;17.49
14666;BMP280;7420;53.574;10.040;2022-07-23T09:56:52;101850.69;;;17.40
14666;BMP280;7420;53.574;10.040;2022-07-23T09:59:18;101847.56;;;17.43
14666;BMP280;7420;53.574;10.040;2022-07-23T10:01:46;101832.88;;;17.57
14666;BMP280;7420;53.574;10.040;2022-07-23T10:04:12;101855.84;;;17.71
14666;BMP280;7420;53.574;10.040;2022-07-23T10:06:43;101846.28;;;17.75
14666;BMP280;7420;53.574;10.040;2022-07-23T10:09:10;101841.53;;;17.88
14666;BMP280;7420;53.574;10.040;2022-07-23T10:11:37;101853.16;;;17.71
14666;BMP280;7420;53.574;10.040;2022-07-23T10:14:02;101853.94;;;17.60
14666;BMP280;7420;53.574;10.040;2022-07-23T10:16:29;101833.63;;;17.46
14666;BMP280;7420;53.574;10.040;2022-07-23T10:18:55;101845.91;;;17.42
14666;BMP280;7420;53.574;10.040;2022-07-23T10:21:30;101856.91;;;17.52
14666;BMP280;7420;53.574;10.040;2022-07-23T10:29:49;101851.81;;;17.80
14666;BMP280;7420;53.574;10.040;2022-07-23T10:32:35;101848.09;;;17.92
14666;BMP280;7420;53.574;10.040;2022-07-23T10:37:54;101848.13;;;18.15
14666;BMP280;7420;53.574;10.040;2022-07-23T10:40:22;101863.28;;;18.28
14666;BMP280;7420;53.574;10.040;2022-07-23T10:42:50;101866.56;;;18.30
14666;BMP280;7420;53.574;10.040;2022-07-23T10:45:34;101866.63;;;18.52
14666;BMP280;7420;53.574;10.040;2022-07-23T10:50:39;101873.25;;;18.27
14666;BMP280;7420;53.574;10.040;2022-07-23T10:53:17;101857.94;;;18.39
14666;BMP280;7420;53.574;10.040;2022-07-23T10:55:46;101868.66;;;18.28
14666;BMP280;7420;53.574;10.040;2022-07-23T10:58:20;101872.72;;;18.59
14666;BMP280;7420;53.574;10.040;2022-07-23T11:00:46;101858.88;;;18.45
14666;BMP280;7420;53.574;10.040;2022-07-23T11:03:35;101866.94;;;18.67
14666;BMP280;7420;53.574;10.040;2022-07-23T11:06:04;101860.97;;;18.65
14666;BMP280;7420;53.574;10.040;2022-07-23T11:08:30;101861.34;;;18.57
14666;BMP280;7420;53.574;10.040;2022-07-23T11:11:08;101850.34;;;18.82
14666;BMP280;7420;53.574;10.040;2022-07-23T11:13:40;101871.28;;;18.68
14666;BMP280;7420;53.574;10.040;2022-07-23T11:18:54;101874.19;;;18.90
14666;BMP280;7420;53.574;10.040;2022-07-23T11:24:18;101855.56;;;19.11
14666;BMP280;7420;53.574;10.040;2022-07-23T11:32:00;101858.75;;;19.20
14666;BMP280;7420;53.574;10.040;2022-07-23T11:34:30;101854.88;;;19.16
14666;BMP280;7420;53.574;10.040;2022-07-23T11:36:57;101857.72;;;18.86
14666;BMP280;7420;53.574;10.040;2022-07-23T11:39:25;101859.09;;;18.77
14666;BMP280;7420;53.574;10.040;2022-07-23T11:41:52;101867.53;;;19.15
14666;BMP280;7420;53.574;10.040;2022-07-23T11:44:45;101858.13;;;19.29
14666;BMP280;7420;53.574;10.040;2022-07-23T11:47:11;101861.41;;;19.31
14666;BMP280;7420;53.574;10.040;2022-07-23T11:49:37;101854.06;;;19.15
14666;BMP280;7420;53.574;10.040;2022-07-23T11:52:15;101855.06;;;19.37
14666;BMP280;7420;53.574;10.040;2022-07-23T11:54:58;101854.91;;;18.81
14666;BMP280;7420;53.574;10.040;2022-07-23T11:57:26;101866.97;;;18.79
14666;BMP280;7420;53.574;10.040;2022-07-23T11:59:55;101872.56;;;18.77
14666;BMP280;7420;53.574;10.040;2022-07-23T12:02:21;101880.66;;;18.54
14666;BMP280;7420;53.574;10.040;2022-07-23T12:04:49;101882.31;;;18.55
14666;BMP280;7420;53.574;10.040;2022-07-23T12:10:10;101871.16;;;18.41
14666;BMP280;7420;53.574;10.040;2022-07-23T12:15:04;101886.91;;;18.26
14666;BMP280;7420;53.574;10.040;2022-07-23T12:17:32;101884.88;;;18.51
14666;BMP280;7420;53.574;10.040;2022-07-23T12:19:58;101893.88;;;18.56
14666;BMP280;7420;53.574;10.040;2022-07-23T12:22:25;101888.94;;;18.42
14666;BMP280;7420;53.574;10.040;2022-07-23T12:25:02;101883.00;;;18.62
14666;BMP280;7420;53.574;10.040;2022-07-23T12:27:29;101892.09;;;18.39
14666;BMP280;7420;53.574;10.040;2022-07-23T12:29:55;101886.00;;;18.32
14666;BMP280;7420;53.574;10.040;2022-07-23T12:32:22;101899.41;;;18.20
14666;BMP280;7420;53.574;10.040;2022-07-23T12:34:49;101898.81;;;18.18
14666;BMP280;7420;53.574;10.040;2022-07-23T12:37:30;101894.47;;;18.47
14666;BMP280;7420;53.574;10.040;2022-07-23T12:39:55;101897.03;;;18.42
14666;BMP280;7420;53.574;10.040;2022-07-23T12:42:21;101901.72;;;18.57
14666;BMP280;7420;53.574;10.040;2022-07-23T12:45:05;101904.88;;;18.54
14666;BMP280;7420;53.574;10.040;2022-07-23T12:47:30;101896.00;;;19.00
14666;BMP280;7420;53.574;10.040;2022-07-23T12:49:55;101891.19;;;19.36
14666;BMP280;7420;53.574;10.040;2022-07-23T12:52:21;101900.34;;;19.63
14666;BMP280;7420;53.574;10.040;2022-07-23T12:54:46;101897.50;;;19.07
14666;BMP280;7420;53.574;10.040;2022-07-23T12:57:12;101901.03;;;18.96
14666;BMP280;7420;53.574;10.040;2022-07-23T12:59:37;101901.72;;;19.03
14666;BMP280;7420;53.574;10.040;2022-07-23T13:02:03;101891.91;;;18.97
14666;BMP280;7420;53.574;10.040;2022-07-23T13:04:28;101893.28;;;19.11
14666;BMP280;7420;53.574;10.040;2022-07-23T13:06:59;101909.59;;;19.67
14666;BMP280;7420;53.574;10.040;2022-07-23T13:09:31;101904.78;;;18.95
14666;BMP280;7420;53.574;10.040;2022-07-23T13:11:57;101896.69;;;19.07
14666;BMP280;7420;53.574;10.040;2022-07-23T13:14:25;101902.88;;;19.07
14666;BMP280;7420;53.574;10.040;2022-07-23T13:16:52;101906.16;;;19.09
14666;BMP280;7420;53.574;10.040;2022-07-23T13:19:18;101900.25;;;19.58
14666;BMP280;7420;53.574;10.040;2022-07-23T13:21:43;101902.34;;;19.56
14666;BMP280;7420;53.574;10.040;2022-07-23T13:24:09;101900.31;;;19.74
14666;BMP280;7420;53.574;10.040;2022-07-23T13:26:36;101910.09;;;19.64
14666;BMP280;7420;53.574;10.040;2022-07-23T13:29:02;101902.44;;;19.33
14666;BMP280;7420;53.574;10.040;2022-07-23T13:31:27;101910.03;;;19.25
14666;BMP280;7420;53.574;10.040;2022-07-23T13:33:52;101924.47;;;18.84
14666;BMP280;7420;53.574;10.040;2022-07-23T13:36:18;101910.41;;;18.94
14666;BMP280;7420;53.574;10.040;2022-07-23T13:38:43;101909.34;;;19.06
14666;BMP280;7420;53.574;10.040;2022-07-23T13:41:10;101917.88;;;19.03
14666;BMP280;7420;53.574;10.040;2022-07-23T13:43:35;101925.28;;;19.19
14666;BMP280;7420;53.574;10.040;2022-07-23T13:46:01;101911.25;;;19.17
14666;BMP280;7420;53.574;10.040;2022-07-23T13:48:26;101915.00;;;18.82
14666;BMP280;7420;53.574;10.040;2022-07-23T13:50:54;101921.66;;;18.79
14666;BMP280;7420;53.574;10.040;2022-07-23T13:53:22;101913.09;;;18.71
14666;BMP280;7420;53.574;10.040;2022-07-23T13:55:50;101910.06;;;18.79
14666;BMP280;7420;53.574;10.040;2022-07-23T13:58:16;101920.38;;;19.16
14666;BMP280;7420;53.574;10.040;2022-07-23T14:00:44;101922.06;;;19.45
14666;BMP280;7420;53.574;10.040;2022-07-23T14:03:09;101925.91;;;19.72
14666;BMP280;7420;53.574;10.040;2022-07-23T14:05:35;101925.63;;;19.34
14666;BMP280;7420;53.574;10.040;2022-07-23T14:08:01;101912.84;;;19.30
14666;BMP280;7420;53.574;10.040;2022-07-23T14:10:27;101922.34;;;19.09
14666;BMP280;7420;53.574;10.040;2022-07-23T14:12:52;101921.97;;;18.71
14666;BMP280;7420;53.574;10.040;2022-07-23T14:15:21;101931.00;;;18.65
14666;BMP280;7420;53.574;10.040;2022-07-23T14:17:46;101937.41;;;18.42
14666;BMP280;7420;53.574;10.040;2022-07-23T14:20:15;101940.41;;;18.97
14666;BMP280;7420;53.574;10.040;2022-07-23T14:22:41;101928.56;;;19.21
14666;BMP280;7420;53.574;10.040;2022-07-23T14:25:08;101930.06;;;20.19